Time;durP1;ratioP1;P1;durP2;ratioP2;P2;SDS_P1;SDS_P2;PMS_P1;PMS_P2;Temp;Humidity;BMP_temperature;BMP_pressure;BME280_temperature;BME280_humidity;BME280_pressure;Samples;Min_cycle;Max_cycle;Signal;HPM_P1;HPM_P2
2022/12/16 00:00:22;;;;;;;32.33;28.23;;;-5.40;99.80;;;;;;5100869;28;20409;-74
2022/12/16 00:02:49;;;;;;;32.50;28.38;;;-5.40;99.70;;;;;;5102475;28;20429;-74
2022/12/16 00:05:18;;;;;;;34.28;29.27;;;-5.40;99.60;;;;;;5105507;28;20436;-72
2022/12/16 00:07:45;;;;;;;34.90;28.92;;;-5.40;99.60;;;;;;5099279;28;20419;-73
2022/12/16 00:10:12;;;;;;;34.85;29.02;;;-5.40;99.50;;;;;;5105225;28;20870;-72
2022/12/16 00:12:41;;;;;;;35.60;29.67;;;-5.40;99.30;;;;;;5098038;28;20524;-72
2022/12/16 00:15:08;;;;;;;36.95;30.58;;;-5.50;99.20;;;;;;5094515;28;20405;-72
2022/12/16 00:17:35;;;;;;;36.35;30.15;;;-5.50;99.20;;;;;;5090566;28;20507;-72
2022/12/16 00:20:02;;;;;;;37.00;30.83;;;-5.50;99.20;;;;;;5095913;28;20412;-73
2022/12/16 00:22:29;;;;;;;40.00;30.27;;;-5.50;99.20;;;;;;5086304;28;20494;-72
2022/12/16 00:24:56;;;;;;;40.88;30.83;;;-5.50;99.20;;;;;;5091755;28;20426;-73
2022/12/16 00:27:23;;;;;;;38.25;29.15;;;-5.50;99.40;;;;;;5099848;28;20422;-74
2022/12/16 00:29:51;;;;;;;37.28;29.58;;;-5.50;99.60;;;;;;5095290;28;20419;-73
2022/12/16 00:32:17;;;;;;;39.73;32.47;;;-5.60;99.60;;;;;;5101249;28;20426;-74
2022/12/16 00:34:44;;;;;;;39.95;30.80;;;-5.60;99.70;;;;;;5113790;28;20442;-74
2022/12/16 00:37:12;;;;;;;34.83;29.43;;;-5.60;99.60;;;;;;5105008;28;20509;-74
2022/12/16 00:39:38;;;;;;;36.35;29.45;;;-5.60;99.80;;;;;;5111728;28;20466;-74
2022/12/16 00:42:05;;;;;;;33.75;28.58;;;-5.60;99.90;;;;;;5109889;28;20755;-73
2022/12/16 00:44:32;;;;;;;35.88;29.05;;;-5.70;99.90;;;;;;5115897;28;20411;-74
2022/12/16 00:47:00;;;;;;;33.50;28.15;;;-5.70;99.80;;;;;;5125653;28;20897;-73
2022/12/16 00:49:27;;;;;;;36.63;29.33;;;-5.70;99.90;;;;;;5118860;28;20447;-73
2022/12/16 00:51:54;;;;;;;42.45;30.65;;;-5.70;99.90;;;;;;5107329;28;20435;-73
2022/12/16 00:54:20;;;;;;;109.38;36.22;;;-5.60;99.90;;;;;;5119371;28;20428;-74
2022/12/16 00:56:47;;;;;;;103.90;34.42;;;-5.60;99.90;;;;;;5105414;28;20410;-74
2022/12/16 00:59:14;;;;;;;139.65;37.78;;;-5.60;99.90;;;;;;5119000;28;20405;-73
2022/12/16 01:01:41;;;;;;;245.68;47.83;;;-5.60;99.90;;;;;;5108429;28;20429;-74
2022/12/16 01:04:09;;;;;;;177.63;43.03;;;-5.50;99.90;;;;;;5107120;28;20433;-73
2022/12/16 01:06:35;;;;;;;66.82;33.25;;;-5.50;99.90;;;;;;5106047;28;20420;-73
2022/12/16 01:09:03;;;;;;;49.45;32.70;;;-5.50;99.90;;;;;;5102088;28;20550;-74
2022/12/16 01:11:29;;;;;;;71.45;35.83;;;-5.50;99.90;;;;;;5112183;28;20445;-74
2022/12/16 01:13:56;;;;;;;41.35;32.67;;;-5.50;99.90;;;;;;5110737;28;20507;-73
2022/12/16 01:16:23;;;;;;;66.40;33.80;;;-5.60;99.90;;;;;;5094427;28;20433;-73
2022/12/16 01:18:50;;;;;;;41.50;31.38;;;-5.50;99.90;;;;;;5105163;28;20443;-73
2022/12/16 01:21:18;;;;;;;61.40;35.90;;;-5.50;99.90;;;;;;5100465;28;20487;-74
2022/12/16 01:23:47;;;;;;;66.28;35.28;;;-5.50;99.90;;;;;;5099266;28;20444;-74
2022/12/16 01:26:17;;;;;;;44.80;30.90;;;-5.40;99.90;;;;;;5100340;28;20756;-73
2022/12/16 01:28:44;;;;;;;99.75;35.40;;;-5.50;99.90;;;;;;5104271;28;20408;-74
2022/12/16 01:31:11;;;;;;;72.15;33.45;;;-5.40;99.90;;;;;;5108567;28;20566;-73
2022/12/16 01:33:38;;;;;;;66.53;34.22;;;-5.50;99.90;;;;;;5108450;28;20428;-73
2022/12/16 01:36:07;;;;;;;47.72;32.45;;;-5.50;99.90;;;;;;5108261;28;20885;-73
2022/12/16 01:38:36;;;;;;;64.63;33.80;;;-5.50;99.90;;;;;;5098650;28;20439;-73
2022/12/16 01:41:03;;;;;;;69.65;35.28;;;-5.50;99.90;;;;;;5103045;28;20424;-74
2022/12/16 01:43:33;;;;;;;40.70;30.75;;;-5.50;99.90;;;;;;5105720;28;20488;-74
2022/12/16 01:46:05;;;;;;;74.40;33.13;;;-5.60;99.90;;;;;;5113457;28;20404;-74
2022/12/16 01:48:40;;;;;;;80.60;33.72;;;-5.60;99.90;;;;;;5120960;28;20873;-73
2022/12/16 01:51:11;;;;;;;54.35;32.00;;;-5.60;99.90;;;;;;5111348;28;20418;-73
2022/12/16 01:53:42;;;;;;;43.20;30.80;;;-5.60;99.90;;;;;;5104518;28;20434;-73
2022/12/16 01:56:13;;;;;;;70.38;32.60;;;-5.60;99.90;;;;;;5105797;28;20447;-74
2022/12/16 01:58:41;;;;;;;68.97;33.08;;;-5.70;99.90;;;;;;5107334;28;20440;-73
2022/12/16 02:01:08;;;;;;;49.78;31.65;;;-5.70;99.90;;;;;;5104207;28;20989;-73
2022/12/16 02:03:36;;;;;;;73.80;32.73;;;-5.70;99.90;;;;;;5101906;28;21013;-73
2022/12/16 02:06:05;;;;;;;57.38;32.55;;;-5.70;99.90;;;;;;5100287;28;20424;-73
2022/12/16 02:08:32;;;;;;;62.80;32.70;;;-5.80;99.90;;;;;;5092708;28;20426;-73
2022/12/16 02:11:32;;;;;;;41.00;31.35;;;-5.80;99.90;;;;;;5100676;28;20428;-73
2022/12/16 02:14:21;;;;;;;42.30;31.58;;;-5.80;99.90;;;;;;5093269;27;20413;-73
2022/12/16 02:16:54;;;;;;;43.58;31.60;;;-5.80;99.90;;;;;;5095664;28;20421;-71
2022/12/16 02:19:47;;;;;;;40.38;31.45;;;-5.80;99.90;;;;;;5103886;28;20467;-73
2022/12/16 02:22:27;;;;;;;41.15;30.15;;;-5.80;99.90;;;;;;5097656;28;20876;-73
2022/12/16 02:25:33;;;;;;;39.55;29.92;;;-5.80;99.90;;;;;;5097192;28;20435;-73
2022/12/16 02:28:05;;;;;;;40.75;31.00;;;-5.80;99.90;;;;;;5029220;28;20431;-73
2022/12/16 02:30:51;;;;;;;41.90;30.15;;;-5.90;99.90;;;;;;5098537;28;20412;-73
2022/12/16 02:33:31;;;;;;;46.03;30.30;;;-5.90;99.90;;;;;;5107203;28;20424;-72
2022/12/16 02:36:06;;;;;;;48.20;32.90;;;-5.90;99.90;;;;;;5109901;28;20436;-75
2022/12/16 02:38:41;;;;;;;45.38;30.55;;;-5.90;99.90;;;;;;5101923;28;20413;-73
2022/12/16 02:41:26;;;;;;;43.83;30.30;;;-5.90;99.90;;;;;;5103700;28;20479;-74
2022/12/16 02:43:57;;;;;;;39.58;29.90;;;-5.90;99.90;;;;;;5098079;28;20483;-73
2022/12/16 02:46:29;;;;;;;66.22;31.95;;;-5.90;99.90;;;;;;5106375;28;20486;-73
2022/12/16 02:48:56;;;;;;;57.08;29.73;;;-5.90;99.90;;;;;;5097597;28;20572;-73
2022/12/16 02:51:25;;;;;;;65.80;29.58;;;-5.80;99.90;;;;;;5095066;28;20923;-73
2022/12/16 02:53:54;;;;;;;48.22;29.00;;;-5.90;99.90;;;;;;5089401;28;20424;-73
2022/12/16 02:56:37;;;;;;;62.70;29.75;;;-5.80;99.90;;;;;;5096301;28;20432;-73
2022/12/16 02:59:15;;;;;;;38.97;28.10;;;-5.80;99.90;;;;;;5096810;28;20890;-73
2022/12/16 03:01:48;;;;;;;54.33;29.48;;;-5.90;99.90;;;;;;5102758;28;20416;-74
2022/12/16 03:04:20;;;;;;;45.90;29.00;;;-5.90;99.90;;;;;;5101674;28;20425;-73
2022/12/16 03:06:49;;;;;;;40.38;28.30;;;-5.90;99.90;;;;;;5106707;28;20404;-73
2022/12/16 03:09:20;;;;;;;42.47;29.08;;;-5.80;99.90;;;;;;5104258;28;20433;-73
2022/12/16 03:11:49;;;;;;;46.50;29.60;;;-5.80;99.90;;;;;;5105100;28;20439;-73
2022/12/16 03:14:18;;;;;;;40.40;28.55;;;-5.80;99.90;;;;;;5097867;28;20446;-73
2022/12/16 03:16:47;;;;;;;42.45;28.60;;;-5.90;99.90;;;;;;5094523;28;20413;-74
2022/12/16 03:19:14;;;;;;;40.67;28.92;;;-5.90;99.90;;;;;;5086483;28;20417;-74
2022/12/16 03:21:46;;;;;;;57.83;30.60;;;-5.80;99.90;;;;;;5098555;28;20438;-73
2022/12/16 03:24:14;;;;;;;56.45;31.27;;;-5.80;99.90;;;;;;5099907;28;20930;-74
2022/12/16 03:26:46;;;;;;;90.03;33.00;;;-5.80;99.90;;;;;;5099589;28;20427;-73
2022/12/16 03:29:16;;;;;;;67.28;30.88;;;-5.80;99.90;;;;;;5113171;28;20483;-73
2022/12/16 03:31:51;;;;;;;179.88;39.17;;;-5.80;99.90;;;;;;5118682;28;20426;-73
2022/12/16 03:34:25;;;;;;;125.18;36.00;;;-5.80;99.90;;;;;;5106194;28;20737;-73
2022/12/16 03:36:55;;;;;;;51.25;29.58;;;-5.80;99.90;;;;;;5097044;28;20418;-73
2022/12/16 03:39:26;;;;;;;99.45;34.05;;;-5.80;99.90;;;;;;5095484;28;20443;-74
2022/12/16 03:41:53;;;;;;;84.88;31.55;;;-5.80;99.90;;;;;;5096536;28;20509;-72
2022/12/16 03:44:22;;;;;;;51.72;30.60;;;-5.70;99.90;;;;;;5092525;28;20410;-71
2022/12/16 03:46:50;;;;;;;73.83;33.63;;;-5.70;99.90;;;;;;5090252;28;20522;-72
2022/12/16 03:49:17;;;;;;;99.05;35.58;;;-5.70;99.90;;;;;;5097460;28;20897;-73
2022/12/16 03:51:44;;;;;;;57.85;31.15;;;-5.70;99.90;;;;;;5103616;28;20510;-74
2022/12/16 03:54:11;;;;;;;74.20;33.97;;;-5.70;99.90;;;;;;5102730;28;20510;-74
2022/12/16 03:56:37;;;;;;;74.03;32.50;;;-5.70;99.90;;;;;;5095781;28;20544;-74
2022/12/16 03:59:04;;;;;;;123.23;36.60;;;-5.70;99.90;;;;;;5101345;28;20424;-71
2022/12/16 04:01:31;;;;;;;86.65;34.38;;;-5.70;99.90;;;;;;5099893;28;20412;-73
2022/12/16 04:03:59;;;;;;;72.77;32.73;;;-5.60;99.90;;;;;;5106331;28;20411;-72
2022/12/16 04:06:25;;;;;;;83.57;32.97;;;-5.60;99.90;;;;;;5108517;28;20535;-72
2022/12/16 04:08:52;;;;;;;94.68;33.13;;;-5.60;99.90;;;;;;5118069;28;20791;-73
2022/12/16 04:25:13;;;;;;;50.20;29.50;;;-5.60;99.90;;;;;;5094068;28;20794;-72
2022/12/16 04:27:45;;;;;;;71.32;30.48;;;-5.60;99.90;;;;;;5094534;28;20428;-73
2022/12/16 04:30:19;;;;;;;48.80;28.60;;;-5.60;99.90;;;;;;5093410;28;20472;-71
